FW9922 Weather Reports


Display with metric or nautical units.
time (UTC)temp
F
wind
direction
speed
MPH
gust
MPH
rain 1hr
in
rain 24hr
in
rain mn
in
humidity
%
barometer
mb
20240228233101 47 245 2.0 3.0 0.00 0.00 0.00 35 1027.7
20240228232559 47 336 2.0 2.0 0.00 0.00 0.00 35 1027.7
20240228232057 47 102 1.0 2.0 0.00 0.00 0.00 36 1027.8
20240228231557 47 142 1.0 2.0 0.00 0.00 0.00 37 1027.7
20240228231056 47 354 4.0 6.0 0.00 0.00 0.00 37 1027.0
20240228230555 47 10 4.0 8.0 0.00 0.00 0.00 37 1027.1
20240228230053 47 329 6.0 8.0 0.00 0.00 0.00 36 1027.1
20240228225552 47 337 3.0 3.0 0.00 0.00 0.00 36 1027.5
20240228225051 47 47 3.0 5.0 0.00 0.00 0.00 36 1027.4
20240228224551 47 277 3.0 5.0 0.00 0.00 0.00 36 1027.0
20240228224050 47 341 5.0 7.0 0.00 0.00 0.00 36 1027.0
20240228223549 47 226 4.0 6.0 0.00 0.00 0.00 35 1027.2
20240228223047 47 69 2.0 3.0 0.00 0.00 0.00 36 1027.2
20240228222546 48 320 7.0 10.0 0.00 0.00 0.00 35 1027.0
20240228222045 47 27 5.0 8.0 0.00 0.00 0.00 35 1027.1
20240228221545 48 123 2.0 3.0 0.00 0.00 0.00 35 1027.2
20240228221043 48 213 1.0 2.0 0.00 0.00 0.00 35 1027.0
20240228220542 47 32 1.0 2.0 0.00 0.00 0.00 35 1027.0
20240228220042 48 335 4.0 5.0 0.00 0.00 0.00 36 1026.9
20240228215540 47 347 3.0 3.0 0.00 0.00 0.00 36 1027.0
20240228215040 47 317 4.0 6.0 0.00 0.00 0.00 36 1027.4
20240228214539 47 348 5.0 9.0 0.00 0.00 0.00 35 1027.1
20240228214038 47 110 4.0 5.0 0.00 0.00 0.00 35 1027.5
20240228213536 47 30 2.0 3.0 0.00 0.00 0.00 35 1027.5
20240228213036 47 180 3.0 5.0 0.00 0.00 0.00 35 1027.5
20240228212534 48 236 2.0 3.0 0.00 0.00 0.00 35 1027.7
20240228212034 47 119 2.0 2.0 0.00 0.00 0.00 35 1027.5
20240228211532 47 189 2.0 3.0 0.00 0.00 0.00 35 1027.4
20240228211031 46 144 2.0 3.0 0.00 0.00 0.00 36 1027.3
20240228210531 47 3 5.0 6.0 0.00 0.00 0.00 35 1027.0
20240228210031 46 57 2.0 2.0 0.00 0.00 0.00 35 1026.9
20240228205530 46 317 6.0 9.0 0.00 0.00 0.00 36 1027.1
20240228205030 47 3 5.0 8.0 0.00 0.00 0.00 35 1027.0
20240228204529 47 96 7.0 11.0 0.00 0.00 0.00 35 1026.7
20240228204028 47 281 4.0 5.0 0.00 0.00 0.00 35 1027.0
20240228203526 47 297 2.0 3.0 0.00 0.00 0.00 35 1027.0
20240228203026 47 348 6.0 11.0 0.00 0.00 0.00 37 1027.2
20240228202524 47 356 6.0 9.0 0.00 0.00 0.00 37 1027.2
20240228202024 46 333 3.0 5.0 0.00 0.00 0.00 37 1027.1
20240228201524 47 19 4.0 5.0 0.00 0.00 0.00 36 1026.8
20240228201022 46 341 3.0 5.0 0.00 0.00 0.00 38 1026.8
20240228200522 47 328 6.0 9.0 0.00 0.00 0.00 37 1027.2
20240228200020 47 279 3.0 5.0 0.00 0.00 0.00 40 1026.8
20240228195518 46 211 6.0 7.0 0.00 0.00 0.00 40 1027.0
20240228195017 47 349 5.0 6.0 0.00 0.00 0.00 39 1027.0
20240228194516 45 338 5.0 6.0 0.00 0.00 0.00 41 1027.1
20240228194016 46 302 7.0 10.0 0.00 0.00 0.00 42 1027.3
20240228193514 45 29 5.0 6.0 0.00 0.00 0.00 43 1027.2
20240228193011 46 13 4.0 6.0 0.00 0.00 0.00 43 1027.4
20240228192510 45 272 3.0 5.0 0.00 0.00 0.00 44 1027.4
20240228192008 45 298 8.0 9.0 0.00 0.00 0.00 43 1027.5
20240228191507 45 302 7.0 13.0 0.00 0.00 0.00 44 1027.3
20240228191007 44 346 4.0 6.0 0.00 0.00 0.00 45 1027.3
20240228190506 45 350 4.0 6.0 0.00 0.00 0.00 44 1027.5
20240228190005 45 5 3.0 5.0 0.00 0.00 0.00 46 1027.4
20240228185505 44 282 3.0 5.0 0.00 0.00 0.00 45 1027.7
20240228185004 44 147 4.0 5.0 0.00 0.00 0.00 46 1027.8
20240228184504 44 325 3.0 5.0 0.00 0.00 0.00 47 1027.9
20240228184003 44 318 5.0 7.0 0.00 0.00 0.00 47 1028.1
20240228183503 44 211 1.0 2.0 0.00 0.00 0.00 45 1027.9
20240228183001 44 329 4.0 6.0 0.00 0.00 0.00 47 1027.9
20240228182500 44 17 5.0 6.0 0.00 0.00 0.00 46 1028.1
20240228181958 44 14 4.0 6.0 0.00 0.00 0.00 48 1028.2
20240228181456 44 303 5.0 7.0 0.00 0.00 0.00 48 1028.1
20240228180955 44 38 3.0 3.0 0.00 0.00 0.00 47 1028.2
20240228180454 44 337 7.0 10.0 0.00 0.00 0.00 48 1028.1
20240228175952 44 24 6.0 10.0 0.00 0.00 0.00 50 1028.1
20240228175451 44 8 6.0 9.0 0.00 0.00 0.00 50 1027.9
20240228174950 43 335 6.0 8.0 0.00 0.00 0.00 50 1027.7
20240228174449 43 290 5.0 7.0 0.00 0.00 0.00 50 1027.9
20240228173947 43 339 7.0 10.0 0.00 0.00 0.00 50 1028.2
20240228173446 44 296 7.0 9.0 0.00 0.00 0.00 50 1028.2
20240228172945 44 74 4.0 8.0 0.00 0.00 0.00 50 1027.7
20240228172444 43 338 7.0 9.0 0.00 0.00 0.00 51 1027.7
20240228171942 43 271 4.0 7.0 0.00 0.00 0.00 51 1027.7
20240228171440 43 346 7.0 9.0 0.00 0.00 0.00 51 1027.6
20240228170938 43 17 4.0 5.0 0.00 0.00 0.00 52 1027.4
20240228170438 43 336 4.0 6.0 0.00 0.00 0.00 51 1027.4
20240228165938 43 358 6.0 11.0 0.00 0.00 0.00 52 1027.7
20240228165436 43 33 7.0 9.0 0.00 0.00 0.00 53 1027.5
20240228164935 43 332 10.0 15.0 0.00 0.00 0.00 52 1027.4
20240228164435 43 343 3.0 5.0 0.00 0.00 0.00 53 1026.9
20240228163933 42 343 9.0 10.0 0.00 0.00 0.00 53 1026.9
20240228163432 42 2 3.0 5.0 0.00 0.00 0.00 53 1026.9
20240228162931 42 30 6.0 8.0 0.00 0.00 0.00 53 1027.0
20240228162428 42 13 10.0 11.0 0.00 0.00 0.00 55 1026.6
20240228161928 43 334 10.0 15.0 0.00 0.00 0.00 54 1026.4
20240228161426 42 118 5.0 8.0 0.00 0.00 0.00 54 1026.3
20240228160925 43 332 8.0 11.0 0.00 0.00 0.00 54 1026.1
20240228160424 42 347 6.0 9.0 0.00 0.00 0.00 55 1026.0
20240228155922 42 66 4.0 6.0 0.00 0.00 0.00 55 1026.2
20240228155420 42 46 8.0 9.0 0.00 0.00 0.00 56 1025.9
20240228154919 42 332 6.0 7.0 0.00 0.00 0.00 56 1026.0
20240228154417 42 307 4.0 8.0 0.00 0.00 0.00 57 1025.8
20240228153916 42 334 11.0 17.0 0.00 0.00 0.00 55 1025.9
20240228153416 42 343 5.0 8.0 0.00 0.00 0.00 55 1025.9
20240228152915 42 39 5.0 6.0 0.00 0.00 0.00 56 1025.7
20240228152413 42 293 5.0 7.0 0.00 0.00 0.00 56 1025.5
20240228151912 42 335 4.0 6.0 0.00 0.00 0.00 56 1025.5
20240228151411 42 315 5.0 7.0 0.00 0.00 0.00 57 1025.3
20240228150909 41 317 11.0 14.0 0.00 0.00 0.00 57 1025.6
20240228150408 41 283 15.0 17.0 0.00 0.00 0.00 56 1025.6
20240228145908 41 321 7.0 13.0 0.00 0.00 0.00 57 1025.2
20240228145407 42 306 9.0 10.0 0.00 0.00 0.00 56 1024.7
20240228144906 42 350 7.0 10.0 0.00 0.00 0.00 56 1024.3
20240228144404 41 317 3.0 3.0 0.00 0.00 0.00 57 1024.0
20240228143903 41 335 6.0 9.0 0.00 0.00 0.00 57 1023.8
20240228143403 42 334 13.0 18.0 0.00 0.00 0.00 56 1023.4
20240228142902 41 74 7.0 10.0 0.00 0.00 0.00 56 1023.0
20240228142402 42 317 8.0 14.0 0.00 0.00 0.00 56 1022.7
20240228141901 42 317 9.0 13.0 0.00 0.00 0.00 55 1023.3
20240228141401 42 274 7.0 8.0 0.00 0.00 0.00 55 1023.0
20240228140859 42 82 7.0 9.0 0.00 0.00 0.00 55 1023.0
20240228140357 42 264 5.0 8.0 0.00 0.00 0.00 55 1022.7
20240228135857 42 240 8.0 11.0 0.00 0.00 0.00 54 1022.6
20240228135355 43 320 8.0 10.0 0.00 0.00 0.00 54 1022.1
20240228134854 43 27 9.0 11.0 0.00 0.00 0.00 54 1022.0
20240228134354 43 46 10.0 15.0 0.00 0.00 0.00 54 1021.8
20240228133855 44 4 7.0 9.0 0.00 0.00 0.00 54 1021.4
20240228133353 44 328 12.0 15.0 0.00 0.00 0.00 54 1021.0
20240228132851 44 324 5.0 7.0 0.00 0.00 0.00 54 1021.1
20240228132350 45 336 6.0 7.0 0.00 0.00 0.00 54 1020.3
20240228131850 45 337 7.0 10.0 0.00 0.00 0.00 53 1020.2
20240228131348 45 289 7.0 9.0 0.00 0.00 0.00 53 1020.1
20240228130847 45 38 3.0 5.0 0.00 0.00 0.00 54 1020.0
20240228130346 45 304 6.0 9.0 0.00 0.00 0.00 53 1020.1
20240228125845 45 312 7.0 9.0 0.00 0.00 0.00 54 1019.9
20240228125344 45 283 7.0 11.0 0.00 0.00 0.00 53 1019.8
20240228124843 45 322 7.0 10.0 0.00 0.00 0.00 54 1019.8
20240228124342 45 329 6.0 10.0 0.00 0.00 0.00 54 1020.0
20240228123842 45 315 9.0 15.0 0.00 0.00 0.00 54 1019.8
20240228123341 45 25 6.0 9.0 0.00 0.00 0.00 54 1019.4
20240228122840 45 336 5.0 7.0 0.00 0.00 0.00 55 1019.4
20240228122339 45 262 4.0 8.0 0.00 0.00 0.00 54 1019.3
20240228121837 45 27 6.0 8.0 0.00 0.00 0.00 54 1019.5
20240228121336 45 328 5.0 6.0 0.00 0.00 0.00 55 1019.4
20240228120836 46 334 8.0 13.0 0.00 0.00 0.00 54 1019.1
20240228120333 46 299 11.0 14.0 0.00 0.00 0.00 54 1018.8
20240228115831 46 292 4.0 5.0 0.00 0.00 0.00 55 1018.7
20240228115330 46 10 5.0 8.0 0.00 0.00 0.00 55 1018.7
20240228114830 46 324 9.0 15.0 0.00 0.00 0.00 54 1018.5
20240228114328 46 312 10.0 13.0 0.00 0.00 0.00 54 1018.4
20240228113826 46 324 9.0 10.0 0.00 0.00 0.00 54 1018.4
20240228113325 46 313 9.0 13.0 0.00 0.00 0.00 54 1018.3
20240228112824 46 9 9.0 13.0 0.00 0.00 0.00 53 1018.2
20240228112324 46 316 10.0 14.0 0.00 0.00 0.00 54 1017.5
20240228111822 46 332 8.0 10.0 0.00 0.00 0.00 54 1017.2
20240228111320 46 18 6.0 9.0 0.00 0.00 0.00 53 1017.2
20240228110818 46 301 9.0 16.0 0.00 0.00 0.00 54 1017.0
20240228110316 47 301 6.0 10.0 0.00 0.00 0.00 53 1016.7
20240228105816 47 347 5.0 7.0 0.00 0.00 0.00 53 1016.4
20240228105315 47 338 8.0 11.0 0.00 0.00 0.00 53 1016.2
20240228104814 47 334 9.0 10.0 0.00 0.00 0.00 52 1015.8
20240228104312 47 334 4.0 5.0 0.00 0.00 0.00 53 1015.7
20240228103810 47 333 4.0 7.0 0.00 0.00 0.00 53 1015.3
20240228103308 47 44 5.0 7.0 0.00 0.00 0.00 53 1015.0
20240228102807 47 314 6.0 9.0 0.00 0.00 0.00 53 1015.0
20240228102306 47 315 7.0 8.0 0.00 0.00 0.00 53 1014.8
20240228101804 47 319 10.0 14.0 0.00 0.00 0.00 53 1014.7
20240228101304 48 16 6.0 8.0 0.00 0.00 0.00 52 1014.3
20240228100802 48 24 9.0 13.0 0.00 0.00 0.00 52 1014.0
20240228100300 48 311 5.0 6.0 0.00 0.00 0.00 51 1013.7
20240228095759 48 320 7.0 9.0 0.00 0.00 0.00 51 1013.5
20240228095258 48 71 7.0 10.0 0.00 0.00 0.00 51 1013.3
20240228094756 48 319 7.0 9.0 0.00 0.00 0.00 51 1013.6
20240228094252 48 292 9.0 11.0 0.00 0.00 0.00 51 1013.1
20240228093751 49 337 8.0 10.0 0.00 0.00 0.00 51 1013.2
20240228093248 49 311 10.0 16.0 0.00 0.00 0.00 50 1013.1
20240228092747 49 304 11.0 15.0 0.00 0.00 0.00 50 1012.9
20240228092246 50 346 11.0 15.0 0.00 0.00 0.00 49 1012.8
20240228091744 50 306 7.0 10.0 0.00 0.00 0.00 50 1012.7
20240228091243 50 345 10.0 11.0 0.00 0.00 0.00 51 1012.6
20240228090743 50 300 4.0 6.0 0.00 0.00 0.00 51 1012.5
20240228090240 51 304 12.0 15.0 0.00 0.00 0.00 51 1011.9
20240228085740 51 7 11.0 17.0 0.00 0.00 0.00 51 1012.2
20240228085239 51 7 8.0 10.0 0.00 0.00 0.00 51 1012.1
20240228084738 52 287 5.0 6.0 0.00 0.00 0.00 52 1012.1
20240228084237 52 352 7.0 9.0 0.00 0.00 0.00 51 1012.0
20240228083734 53 327 8.0 11.0 0.00 0.00 0.00 50 1011.6
20240228083232 53 335 5.0 6.0 0.00 0.00 0.00 51 1011.4
20240228082731 54 340 11.0 18.0 0.00 0.00 0.00 51 1011.1
20240228082229 54 313 12.0 16.0 0.00 0.00 0.00 51 1010.9
20240228081728 54 347 9.0 11.0 0.00 0.00 0.00 51 1010.6
20240228081228 55 344 9.0 10.0 0.00 0.00 0.00 52 1010.3
20240228080728 56 310 11.0 15.0 0.00 0.00 0.00 52 1010.3
20240228080227 56 24 8.0 11.0 0.00 0.00 0.00 53 1010.0
20240228075727 57 336 11.0 22.0 0.00 0.00 0.00 52 1009.8
20240228075225 57 53 12.0 16.0 0.00 0.00 0.00 52 1009.7
20240228074723 58 325 8.0 9.0 0.00 0.00 0.00 51 1009.5
20240228074221 59 303 10.0 15.0 0.00 0.00 0.00 51 1009.0
20240228073720 59 326 11.0 15.0 0.00 0.00 0.00 50 1008.8
20240228073220 61 331 7.0 8.0 0.00 0.00 0.00 52 1008.4
20240228072720 63 315 12.0 15.0 0.00 0.00 0.00 51 1008.1
20240228072220 66 314 9.0 13.0 0.00 0.00 0.00 51 1007.5
20240228071719 69 335 12.0 16.0 0.00 0.00 0.00 52 1007.0
20240228071219 72 280 2.0 2.0 0.00 0.00 0.00 79 1006.4
20240228070718 72 312 3.0 3.0 0.00 0.00 0.00 79 1006.0
20240228070218 72 319 5.0 7.0 0.00 0.00 0.00 81 1006.0
20240228065717 70 5 5.0 7.0 0.00 0.00 0.00 85 1005.9
20240228065216 70 321 8.0 10.0 0.00 0.00 0.00 88 1005.9
20240228064715 71 174 3.0 5.0 0.00 0.00 0.00 87 1004.4
20240228064214 71 175 4.0 5.0 0.00 0.00 0.00 87 1004.2
20240228063713 71 137 3.0 5.0 0.00 0.00 0.00 87 1004.3
20240228063212 71 156 1.0 2.0 0.00 0.00 0.00 87 1004.4
20240228062711 71 145 2.0 2.0 0.00 0.00 0.00 87 1004.4
20240228062210 71 166 4.0 6.0 0.00 0.00 0.00 87 1004.3
20240228061709 71 166 4.0 6.0 0.00 0.00 0.00 87 1004.7
20240228061208 71 239 3.0 5.0 0.00 0.00 0.00 87 1004.5
20240228060708 71 255 3.0 5.0 0.00 0.00 0.00 87 1004.3
20240228060206 71 149 3.0 5.0 0.00 0.00 0.00 87 1004.7
20240228055705 71 151 4.0 5.0 0.00 0.00 0.00 87 1004.3
20240228055204 71 128 3.0 5.0 0.00 0.00 0.00 87 1004.7
20240228054704 71 122 3.0 6.0 0.00 0.00 0.00 87 1004.7
20240228054202 71 220 5.0 7.0 0.00 0.00 0.00 86 1004.4
20240228053701 71 154 5.0 6.0 0.00 0.00 0.00 86 1004.4
20240228053200 71 173 4.0 6.0 0.00 0.00 0.00 86 1004.4
20240228052659 71 160 4.0 5.0 0.00 0.00 0.00 86 1004.3
20240228052158 71 148 4.0 6.0 0.00 0.00 0.00 86 1004.2
20240228051658 71 178 5.0 7.0 0.00 0.00 0.00 86 1004.3
20240228051158 71 132 2.0 2.0 0.00 0.00 0.00 86 1004.3
20240228050657 71 172 3.0 6.0 0.00 0.00 0.00 86 1004.3
20240228050156 71 195 4.0 5.0 0.00 0.00 0.00 86 1004.7
20240228045656 72 186 2.0 2.0 0.00 0.00 0.00 85 1004.2
20240228045154 72 198 3.0 3.0 0.00 0.00 0.00 85 1004.7
20240228044652 72 144 2.0 3.0 0.00 0.00 0.00 85 1004.7
20240228044152 72 178 3.0 5.0 0.00 0.00 0.00 85 1004.8
20240228043652 72 185 6.0 7.0 0.00 0.00 0.00 85 1004.8
20240228043152 72 194 3.0 6.0 0.00 0.00 0.00 85 1004.5
20240228042650 72 179 2.0 3.0 0.00 0.00 0.00 85 1004.4
20240228042148 72 164 2.0 2.0 0.00 0.00 0.00 84 1004.3
20240228041646 72 162 5.0 5.0 0.00 0.00 0.00 84 1004.4
20240228041145 72 247 3.0 3.0 0.00 0.00 0.00 84 1004.3
20240228040644 72 195 5.0 6.0 0.00 0.00 0.00 84 1004.0
20240228040143 72 169 4.0 6.0 0.00 0.00 0.00 84 1004.2
20240228035641 72 170 4.0 5.0 0.00 0.00 0.00 84 1004.3
20240228035141 72 186 5.0 6.0 0.00 0.00 0.00 84 1003.9
20240228034639 72 186 5.0 6.0 0.00 0.00 0.00 84 1003.9
20240228034140 72 205 4.0 6.0 0.00 0.00 0.00 84 1003.7
20240228033638 73 155 4.0 6.0 0.00 0.00 0.00 83 1003.3
20240228033138 73 174 6.0 9.0 0.00 0.00 0.00 83 1003.4
20240228032637 73 141 2.0 3.0 0.00 0.00 0.00 83 1003.5
20240228032136 73 197 2.0 3.0 0.00 0.00 0.00 83 1003.5
20240228031635 73 180 3.0 3.0 0.00 0.00 0.00 83 1003.3
20240228031133 73 295 2.0 2.0 0.00 0.00 0.00 83 1003.4
20240228030632 73 208 4.0 6.0 0.00 0.00 0.00 83 1003.2
20240228030130 73 101 5.0 8.0 0.00 0.00 0.00 83 1003.1
20240228025630 73 152 5.0 7.0 0.00 0.00 0.00 83 1003.0
20240228025129 73 203 6.0 9.0 0.00 0.00 0.00 83 1002.9
20240228024628 73 108 4.0 5.0 0.00 0.00 0.00 83 1003.2
20240228024127 73 145 4.0 5.0 0.00 0.00 0.00 84 1003.0
20240228023627 73 161 6.0 7.0 0.00 0.00 0.00 83 1002.8
20240228023126 73 112 5.0 7.0 0.00 0.00 0.00 84 1002.7
20240228022625 73 156 5.0 7.0 0.00 0.00 0.00 84 1002.7
20240228022123 73 192 8.0 10.0 0.00 0.00 0.00 84 1002.7
20240228021622 73 141 5.0 7.0 0.00 0.00 0.00 84 1002.9
20240228021121 73 206 7.0 8.0 0.00 0.00 0.00 84 1002.8
20240228020622 73 176 5.0 8.0 0.00 0.00 0.00 84 1002.9
20240228020121 73 173 4.0 6.0 0.00 0.00 0.00 84 1002.8
20240228015619 73 149 5.0 7.0 0.00 0.00 0.00 84 1002.9
20240228015118 73 180 4.0 7.0 0.00 0.00 0.00 84 1002.8
20240228014616 73 157 6.0 8.0 0.00 0.00 0.00 84 1002.7
20240228014115 73 147 4.0 5.0 0.00 0.00 0.00 84 1002.7
20240228013614 73 154 2.0 5.0 0.00 0.00 0.00 84 1002.7
20240228013112 73 177 8.0 11.0 0.00 0.00 0.00 84 1002.7
20240228012611 73 119 5.0 7.0 0.00 0.00 0.00 84 1002.7
20240228012109 73 180 6.0 7.0 0.00 0.00 0.00 84 1002.7
20240228011609 73 187 5.0 6.0 0.00 0.00 0.00 84 1002.5
20240228011108 73 207 5.0 6.0 0.00 0.00 0.00 83 1002.8
20240228010607 73 177 3.0 5.0 0.00 0.00 0.00 83 1002.7
20240228010105 73 99 4.0 6.0 0.00 0.00 0.00 83 1002.7
20240228005603 73 129 7.0 9.0 0.00 0.00 0.00 83 1003.0
20240228005102 73 115 4.0 7.0 0.00 0.00 0.00 83 1003.1
20240228004601 73 151 5.0 8.0 0.00 0.00 0.00 83 1003.1
20240228004100 73 222 5.0 7.0 0.00 0.00 0.00 83 1002.8
20240228003558 73 92 5.0 6.0 0.00 0.00 0.00 83 1002.7
20240228003057 73 175 3.0 3.0 0.00 0.00 0.00 82 1002.8
20240228002555 74 158 5.0 7.0 0.00 0.00 0.00 82 1002.6
20240228002055 74 140 4.0 7.0 0.00 0.00 0.00 82 1002.8
20240228001554 74 138 6.0 7.0 0.00 0.00 0.00 82 1002.7
20240228001053 74 199 4.0 5.0 0.00 0.00 0.00 81 1002.6
20240228000551 74 121 4.0 6.0 0.00 0.00 0.00 81 1002.4
20240228000049 74 96 7.0 10.0 0.00 0.00 0.00 81 1002.5
20240227235548 74 174 3.0 5.0 0.00 0.00 0.00 80 1002.3
20240227235047 74 165 4.0 6.0 0.00 0.00 0.00 80 1002.7
20240227234545 75 177 5.0 9.0 0.00 0.00 0.00 80 1002.7
20240227234043 75 194 5.0 7.0 0.00 0.00 0.00 80 1002.4
20240227233542 75 157 5.0 6.0 0.00 0.00 0.00 79 1002.6